createdAt,value
2023-06-14T00:01:41.554Z,100354.38
2023-06-14T00:04:12.127Z,100352.25
2023-06-14T00:06:42.800Z,100360.25
2023-06-14T00:09:13.856Z,100344.94
2023-06-14T00:11:46.362Z,100345.06
2023-06-14T00:14:16.135Z,100355.78
2023-06-14T00:16:46.283Z,100345.59
2023-06-14T00:19:17.663Z,100321.22
2023-06-14T00:21:48.044Z,100304.84
2023-06-14T00:24:18.051Z,100303.16
2023-06-14T00:26:50.726Z,100304.84
2023-06-14T00:29:20.682Z,100293.47
2023-06-14T00:31:50.678Z,100282.22
2023-06-14T00:34:22.163Z,100286.88
2023-06-14T00:36:51.921Z,100283.63
2023-06-14T00:39:21.672Z,100269.78
2023-06-14T00:41:53.992Z,100264.69
2023-06-14T00:44:24.942Z,100268.50
2023-06-14T00:46:54.740Z,100263.63
2023-06-14T00:49:26.899Z,100261.28
2023-06-14T00:51:56.839Z,100262.44
2023-06-14T00:54:26.586Z,100251.81
2023-06-14T00:56:58.947Z,100246.06
2023-06-14T00:59:29.053Z,100256.91
2023-06-14T01:01:59.153Z,100265.09
2023-06-14T01:04:28.952Z,100253.81
2023-06-14T01:07:05.042Z,100254.16
2023-06-14T01:09:43.176Z,100237.47
2023-06-14T01:12:19.858Z,100239.34
2023-06-14T01:14:51.505Z,100225.44
2023-06-14T01:17:24.386Z,100232.69
2023-06-14T01:19:58.941Z,100239.03
2023-06-14T01:22:30.122Z,100219.81
2023-06-14T01:25:02.561Z,100239.25
2023-06-14T01:27:33.810Z,100239.38
2023-06-14T01:30:06.595Z,100223.72
2023-06-14T01:32:36.394Z,100220.34
2023-06-14T01:35:06.770Z,100219.25
2023-06-14T01:37:36.698Z,100190.88
2023-06-14T01:40:11.633Z,100199.81
2023-06-14T01:42:42.745Z,100202.03
2023-06-14T01:45:14.381Z,100196.63
2023-06-14T01:47:44.672Z,100196.84
2023-06-14T01:50:14.823Z,100206.72
2023-06-14T01:52:44.839Z,100203.63
2023-06-14T01:55:19.105Z,100218.72
2023-06-14T01:57:48.902Z,100217.03
2023-06-14T02:00:20.384Z,100206.81
2023-06-14T02:02:51.626Z,100194.59
2023-06-14T02:05:22.940Z,100187.78
2023-06-14T02:07:52.749Z,100187.91
2023-06-14T02:10:25.123Z,100182.81
2023-06-14T02:12:54.941Z,100186.44
2023-06-14T02:15:24.990Z,100184.91
2023-06-14T02:17:55.370Z,100178.88
2023-06-14T02:20:25.180Z,100174.69
2023-06-14T02:22:54.870Z,100158.03
2023-06-14T02:25:29.115Z,100156.56
2023-06-14T02:27:59.171Z,100155.78
2023-06-14T02:30:28.863Z,100156.00
2023-06-14T02:33:00.440Z,100151.00
2023-06-14T02:35:30.915Z,100147.59
2023-06-14T02:38:00.648Z,100154.81
2023-06-14T02:40:32.936Z,100141.13
2023-06-14T02:43:03.148Z,100146.59
2023-06-14T02:45:32.886Z,100148.41
2023-06-14T02:48:02.686Z,100135.53
2023-06-14T02:50:33.618Z,100129.50
2023-06-14T02:53:04.058Z,100133.19
2023-06-14T02:55:40.362Z,100135.09
2023-06-14T02:58:11.296Z,100141.38
2023-06-14T03:00:42.267Z,100140.63
2023-06-14T03:03:15.568Z,100141.53
2023-06-14T03:05:52.338Z,100136.75
2023-06-14T03:08:28.468Z,100128.88
2023-06-14T03:11:03.436Z,100125.72
2023-06-14T03:13:33.598Z,100127.59
2023-06-14T03:16:04.172Z,100119.00
2023-06-14T03:18:37.205Z,100126.97
2023-06-14T03:21:10.313Z,100115.03
2023-06-14T03:23:44.810Z,100119.72
2023-06-14T03:26:19.170Z,100118.94
2023-06-14T03:28:51.373Z,100114.59
2023-06-14T03:31:22.521Z,100107.81
2023-06-14T03:33:52.268Z,100106.28
2023-06-14T03:36:23.937Z,100094.09
2023-06-14T03:38:53.788Z,100096.94
2023-06-14T03:41:26.432Z,100093.53
2023-06-14T03:43:57.650Z,100097.13
2023-06-14T03:46:27.669Z,100092.78
2023-06-14T03:48:58.383Z,100098.47
2023-06-14T03:51:29.704Z,100101.03
2023-06-14T03:56:38.434Z,100080.25
2023-06-14T03:59:11.356Z,100076.81
2023-06-14T04:01:47.469Z,100089.22
2023-06-14T04:04:19.888Z,100089.22
2023-06-14T04:06:51.131Z,100086.66
2023-06-14T04:09:21.418Z,100083.28
2023-06-14T04:11:53.754Z,100079.09
2023-06-14T04:14:23.546Z,100074.75
2023-06-14T04:16:53.799Z,100077.63
2023-06-14T04:19:24.544Z,100070.53
2023-06-14T04:21:54.376Z,100071.47
2023-06-14T04:24:30.186Z,100074.41
2023-06-14T04:27:03.531Z,100068.94
2023-06-14T04:29:34.652Z,100055.75
2023-06-14T04:32:11.357Z,100059.19
2023-06-14T04:34:42.612Z,100043.16
2023-06-14T04:37:13.111Z,100053.56
2023-06-14T04:39:46.270Z,100051.88
2023-06-14T04:42:22.009Z,100045.50
2023-06-14T04:44:51.929Z,100044.59
2023-06-14T04:47:22.248Z,100058.47
2023-06-14T04:49:54.728Z,100062.94
2023-06-14T04:52:27.709Z,100066.22
2023-06-14T04:54:59.078Z,100082.88
2023-06-14T04:57:31.736Z,100079.94
2023-06-14T05:00:05.884Z,100086.75
2023-06-14T05:02:37.006Z,100085.78
2023-06-14T05:05:10.421Z,100092.69
2023-06-14T05:07:42.588Z,100083.59
2023-06-14T05:10:13.826Z,100087.84
2023-06-14T05:12:46.997Z,100085.19
2023-06-14T05:15:17.781Z,100087.72
2023-06-14T05:17:54.496Z,100105.25
2023-06-14T05:20:24.361Z,100103.47
2023-06-14T05:22:54.345Z,100099.63
2023-06-14T05:25:24.501Z,100109.19
2023-06-14T05:27:56.928Z,100109.00
2023-06-14T05:30:27.304Z,100093.72
2023-06-14T05:32:57.166Z,100089.19
2023-06-14T05:35:27.915Z,100100.44
2023-06-14T05:37:57.717Z,100087.91
2023-06-14T05:40:27.554Z,100093.88
2023-06-14T05:42:59.986Z,100083.16
2023-06-14T05:45:29.761Z,100089.09
2023-06-14T05:47:59.547Z,100094.22
2023-06-14T05:50:29.383Z,100086.25
2023-06-14T05:52:59.135Z,100097.50
2023-06-14T05:55:28.944Z,100105.19
2023-06-14T05:58:01.939Z,100113.88
2023-06-14T06:00:31.731Z,100156.66
2023-06-14T06:03:02.260Z,100184.13
2023-06-14T06:05:32.444Z,100179.47
2023-06-14T06:08:02.184Z,100146.53
2023-06-14T06:10:31.883Z,100148.03
2023-06-14T06:13:04.213Z,100174.25
2023-06-14T06:15:33.959Z,100152.84
2023-06-14T06:18:03.632Z,100198.09
2023-06-14T06:20:33.587Z,100277.78
2023-06-14T06:23:03.566Z,100304.91
2023-06-14T06:25:33.650Z,100351.16
2023-06-14T06:28:08.089Z,100362.97
2023-06-14T06:30:38.167Z,100424.38
2023-06-14T06:33:07.980Z,100481.88
2023-06-14T06:35:38.686Z,100464.69
2023-06-14T06:38:09.941Z,100474.91
2023-06-14T06:40:39.827Z,100495.78
2023-06-14T06:43:14.733Z,100499.63
2023-06-14T06:45:49.326Z,100462.69
2023-06-14T06:48:19.460Z,100561.41
2023-06-14T06:50:49.209Z,100586.22
2023-06-14T06:53:26.837Z,100622.56
2023-06-14T06:56:05.431Z,100657.47
2023-06-14T06:58:37.758Z,100637.53
2023-06-14T07:01:07.605Z,100646.47
2023-06-14T07:03:37.378Z,100613.00
2023-06-14T07:06:07.624Z,100632.63
2023-06-14T07:08:39.799Z,100676.94
2023-06-14T07:11:10.116Z,100703.78
2023-06-14T07:13:42.603Z,100706.69
2023-06-14T07:16:12.746Z,100746.47
2023-06-14T07:18:42.572Z,100760.31
2023-06-14T07:21:12.313Z,100760.38
2023-06-14T07:23:42.183Z,100746.34
2023-06-14T07:26:11.992Z,100763.19
2023-06-14T07:28:46.173Z,100773.91
2023-06-14T07:31:16.548Z,100784.34
2023-06-14T07:33:46.505Z,100783.09
2023-06-14T07:36:16.560Z,100775.47
2023-06-14T07:38:46.288Z,100768.97
2023-06-14T07:41:16.032Z,100767.66
2023-06-14T07:43:48.319Z,100775.00
2023-06-14T07:46:18.485Z,100794.75
2023-06-14T07:48:48.276Z,100793.28
2023-06-14T07:51:18.237Z,100804.22
2023-06-14T07:53:48.324Z,100816.25
2023-06-14T07:56:18.180Z,100821.25
2023-06-14T07:58:50.461Z,100816.22
2023-06-14T08:01:21.310Z,100834.56
2023-06-14T08:03:51.275Z,100846.22
2023-06-14T08:06:21.232Z,100847.88
2023-06-14T08:08:51.012Z,100848.84
2023-06-14T08:11:20.729Z,100853.06
2023-06-14T08:13:53.060Z,100844.38
2023-06-14T08:16:22.852Z,100848.22
2023-06-14T08:18:53.004Z,100859.00
2023-06-14T08:21:23.130Z,100851.22
2023-06-14T08:23:54.347Z,100860.84
2023-06-14T08:26:24.271Z,100857.88
2023-06-14T08:28:56.645Z,100855.66
2023-06-14T08:31:26.732Z,100855.34
2023-06-14T08:33:56.538Z,100852.69
2023-06-14T08:36:26.462Z,100853.16
2023-06-14T08:38:57.102Z,100863.09
2023-06-14T08:41:28.368Z,100873.69
2023-06-14T08:44:00.956Z,100872.66
2023-06-14T08:46:31.334Z,100879.31
2023-06-14T08:49:01.273Z,100885.19
2023-06-14T08:51:35.153Z,100878.75
2023-06-14T08:54:05.251Z,100878.22
2023-06-14T08:56:35.730Z,100877.03
2023-06-14T08:59:10.031Z,100881.94
2023-06-14T09:01:44.389Z,100876.97
2023-06-14T09:04:19.674Z,100875.34
2023-06-14T09:06:54.082Z,100875.97
2023-06-14T09:09:24.118Z,100877.69
2023-06-14T09:11:54.259Z,100881.22
2023-06-14T09:14:27.869Z,100870.50
2023-06-14T09:16:58.056Z,100880.53
2023-06-14T09:19:28.670Z,100887.34
2023-06-14T09:21:58.402Z,100885.06
2023-06-14T09:24:29.193Z,100874.59
2023-06-14T09:26:59.370Z,100875.06
2023-06-14T09:29:32.982Z,100878.75
2023-06-14T09:32:03.078Z,100874.81
2023-06-14T09:34:32.784Z,100869.16
2023-06-14T09:37:02.532Z,100877.78
2023-06-14T09:39:32.238Z,100885.06
2023-06-14T09:42:02.070Z,100888.00
2023-06-14T09:44:35.018Z,100891.53
2023-06-14T09:47:07.226Z,100891.53
2023-06-14T09:49:37.169Z,100898.91
2023-06-14T09:52:08.234Z,100891.53
2023-06-14T09:54:41.030Z,100896.38
2023-06-14T09:57:12.853Z,100885.53
2023-06-14T09:59:48.812Z,100893.88
2023-06-14T10:02:29.798Z,100905.63
2023-06-14T10:05:05.167Z,100897.50
2023-06-14T10:07:46.491Z,100902.22
2023-06-14T10:10:16.673Z,100900.53
2023-06-14T10:12:46.598Z,100892.03
2023-06-14T10:15:22.720Z,100899.84
2023-06-14T10:17:56.645Z,100910.75
2023-06-14T10:20:32.995Z,100896.59
2023-06-14T10:23:06.373Z,100900.13
2023-06-14T10:25:36.925Z,100898.16
2023-06-14T10:28:18.857Z,100893.47
2023-06-14T10:31:09.797Z,100892.63
2023-06-14T10:33:42.429Z,100890.06
2023-06-14T10:36:15.030Z,100887.66
2023-06-14T10:38:46.130Z,100893.34
2023-06-14T10:41:16.256Z,100878.31
2023-06-14T10:43:45.987Z,100878.31
2023-06-14T10:46:24.290Z,100877.03
2023-06-14T10:49:01.176Z,100879.19
2023-06-14T10:51:34.057Z,100871.09
2023-06-14T10:54:04.351Z,100869.25
2023-06-14T10:56:34.843Z,100877.75
2023-06-14T10:59:04.564Z,100868.53
2023-06-14T11:01:45.271Z,100872.91
2023-06-14T11:04:15.587Z,100874.88
2023-06-14T11:06:51.082Z,100877.28
2023-06-14T11:09:49.421Z,100875.31
2023-06-14T11:12:19.871Z,100877.31
2023-06-14T11:14:50.604Z,100881.69
2023-06-14T11:17:23.027Z,100874.34
2023-06-14T11:19:52.754Z,100879.28
2023-06-14T11:22:22.585Z,100874.16
2023-06-14T11:24:52.365Z,100872.28
2023-06-14T11:27:22.248Z,100868.16
2023-06-14T11:29:52.520Z,100871.59
2023-06-14T11:32:24.914Z,100873.13
2023-06-14T11:34:54.801Z,100883.91
2023-06-14T11:37:25.788Z,100870.94
2023-06-14T11:39:55.661Z,100865.78
2023-06-14T11:42:25.364Z,100870.44
2023-06-14T11:45:02.806Z,100867.63
2023-06-14T11:47:43.659Z,100864.78
2023-06-14T11:50:13.877Z,100869.72
2023-06-14T11:52:43.578Z,100871.72
2023-06-14T11:55:13.521Z,100868.78
2023-06-14T11:57:43.857Z,100861.13
2023-06-14T12:00:16.767Z,100874.56
2023-06-14T12:02:57.257Z,100877.13
2023-06-14T12:05:27.942Z,100874.81
2023-06-14T12:08:02.707Z,100862.41
2023-06-14T12:10:33.022Z,100861.13
2023-06-14T12:13:03.114Z,100858.09
2023-06-14T12:15:33.277Z,100861.78
2023-06-14T12:18:06.747Z,100858.66
2023-06-14T12:20:37.812Z,100845.47
2023-06-14T12:23:09.687Z,100847.88
2023-06-14T12:25:41.981Z,100850.69
2023-06-14T12:28:12.728Z,100861.16
2023-06-14T12:30:42.526Z,100850.06
2023-06-14T12:33:14.947Z,100857.19
2023-06-14T12:35:45.029Z,100848.78
2023-06-14T12:38:16.576Z,100852.97
2023-06-14T12:40:46.602Z,100852.00
2023-06-14T12:43:17.588Z,100852.97
2023-06-14T12:45:49.249Z,100849.72
2023-06-14T12:48:21.708Z,100851.13
2023-06-14T12:50:51.845Z,100847.41
2023-06-14T12:53:22.277Z,100847.34
2023-06-14T12:55:52.092Z,100859.00
2023-06-14T12:58:21.842Z,100850.16
2023-06-14T13:00:51.777Z,100843.31
2023-06-14T13:03:24.237Z,100847.69
2023-06-14T13:05:54.068Z,100849.78
2023-06-14T13:08:25.657Z,100846.31
2023-06-14T13:10:55.612Z,100854.41
2023-06-14T13:13:25.441Z,100855.09
2023-06-14T13:15:55.178Z,100847.53
2023-06-14T13:18:27.488Z,100848.38
2023-06-14T13:20:57.231Z,100845.56
2023-06-14T13:23:26.988Z,100850.19
2023-06-14T13:25:56.789Z,100855.63
2023-06-14T13:28:26.495Z,100845.09
2023-06-14T13:30:56.929Z,100859.34
2023-06-14T13:33:29.275Z,100853.84
2023-06-14T13:35:59.076Z,100858.56
2023-06-14T13:38:28.803Z,100865.06
2023-06-14T13:40:58.749Z,100860.00
2023-06-14T13:43:28.422Z,100865.91
2023-06-14T13:45:58.287Z,100851.69
2023-06-14T13:48:30.675Z,100863.31
2023-06-14T13:51:00.493Z,100857.88
2023-06-14T13:53:30.234Z,100847.78
2023-06-14T13:56:00.001Z,100847.78
2023-06-14T13:58:30.378Z,100855.78
2023-06-14T14:01:00.987Z,100852.25
2023-06-14T14:03:33.498Z,100846.16
2023-06-14T14:06:04.613Z,100844.84
2023-06-14T14:08:34.476Z,100838.41
2023-06-14T14:11:04.435Z,100849.31
2023-06-14T14:13:34.584Z,100842.06
2023-06-14T14:16:04.406Z,100842.47
2023-06-14T14:18:37.382Z,100843.31
2023-06-14T14:21:07.487Z,100851.41
2023-06-14T14:23:38.683Z,100843.06
2023-06-14T14:26:09.561Z,100845.09
2023-06-14T14:28:39.256Z,100844.06
2023-06-14T14:31:08.989Z,100844.63
2023-06-14T14:33:41.361Z,100849.56
2023-06-14T14:36:11.159Z,100848.09
2023-06-14T14:38:40.974Z,100854.34
2023-06-14T14:41:10.693Z,100840.38
2023-06-14T14:43:40.543Z,100850.03
2023-06-14T14:46:10.256Z,100837.84
2023-06-14T14:48:42.611Z,100841.22
2023-06-14T14:51:12.382Z,100846.38
2023-06-14T14:53:42.152Z,100849.78
2023-06-14T14:56:13.297Z,100851.63
2023-06-14T14:58:43.034Z,100855.03
2023-06-14T15:01:14.202Z,100847.22
2023-06-14T15:06:21.584Z,100853.78
2023-06-14T15:08:52.037Z,100850.06
2023-06-14T15:11:23.591Z,100857.91
2023-06-14T15:13:53.408Z,100858.78
2023-06-14T15:16:23.291Z,100848.00
2023-06-14T15:18:55.655Z,100854.38
2023-06-14T15:21:25.875Z,100850.56
2023-06-14T15:23:55.661Z,100848.13
2023-06-14T15:26:25.623Z,100849.06
2023-06-14T15:28:55.343Z,100848.09
2023-06-14T15:31:28.484Z,100853.50
2023-06-14T15:34:00.944Z,100850.63
2023-06-14T15:36:30.656Z,100858.16
2023-06-14T15:39:00.361Z,100855.94
2023-06-14T15:41:30.185Z,100857.38
2023-06-14T15:44:00.070Z,100849.63
2023-06-14T15:46:29.901Z,100855.69
2023-06-14T15:49:02.267Z,100861.09
2023-06-14T15:51:32.044Z,100855.84
2023-06-14T15:54:01.858Z,100850.38
2023-06-14T15:56:31.526Z,100854.75
2023-06-14T15:59:01.504Z,100853.06
2023-06-14T16:01:31.357Z,100849.91
2023-06-14T16:04:03.786Z,100856.59
2023-06-14T16:06:33.571Z,100856.28
2023-06-14T16:09:04.099Z,100854.19
2023-06-14T16:11:33.876Z,100853.34
2023-06-14T16:14:03.554Z,100850.66
2023-06-14T16:16:33.333Z,100857.88
2023-06-14T16:19:06.630Z,100848.69
2023-06-14T16:21:38.130Z,100850.28
2023-06-14T16:24:09.492Z,100847.25
2023-06-14T16:26:39.316Z,100843.72
2023-06-14T16:29:09.044Z,100850.66
2023-06-14T16:31:38.891Z,100845.41
2023-06-14T16:34:12.704Z,100844.13
2023-06-14T16:36:42.599Z,100850.31
2023-06-14T16:39:13.015Z,100851.38
2023-06-14T16:41:42.716Z,100865.13
2023-06-14T16:44:13.418Z,100849.38
2023-06-14T16:46:43.249Z,100866.13
2023-06-14T16:49:15.689Z,100861.03
2023-06-14T16:51:45.461Z,100858.78
2023-06-14T16:54:15.161Z,100860.00
2023-06-14T16:56:44.865Z,100849.78
2023-06-14T16:59:14.573Z,100866.34
2023-06-14T17:01:44.327Z,100864.13
2023-06-14T17:04:16.856Z,100864.88
2023-06-14T17:06:46.726Z,100871.28
2023-06-14T17:09:17.620Z,100868.78
2023-06-14T17:11:47.473Z,100871.78
2023-06-14T17:14:17.501Z,100858.31
2023-06-14T17:16:47.318Z,100865.44
2023-06-14T17:19:19.868Z,100869.09
2023-06-14T17:21:53.107Z,100870.53
2023-06-14T17:24:26.390Z,100871.59
2023-06-14T17:26:58.487Z,100876.47
2023-06-14T17:29:28.375Z,100870.69
2023-06-14T17:31:58.307Z,100873.56
2023-06-14T17:34:30.689Z,100880.94
2023-06-14T17:37:00.484Z,100877.59
2023-06-14T17:39:30.282Z,100876.88
2023-06-14T17:42:00.025Z,100876.53
2023-06-14T17:44:29.811Z,100881.53
2023-06-14T17:46:59.504Z,100885.63
2023-06-14T17:49:31.879Z,100890.19
2023-06-14T17:52:02.437Z,100886.75
2023-06-14T17:54:33.131Z,100885.41
2023-06-14T17:57:02.845Z,100894.53
2023-06-14T17:59:32.564Z,100882.06
2023-06-14T18:02:02.472Z,100885.72
2023-06-14T18:04:35.442Z,100892.53
2023-06-14T18:07:05.356Z,100889.56
2023-06-14T18:09:35.136Z,100889.28
2023-06-14T18:12:04.895Z,100893.72
2023-06-14T18:14:34.618Z,100898.84
2023-06-14T18:17:04.436Z,100894.75
2023-06-14T18:19:37.969Z,100908.34
2023-06-14T18:22:09.050Z,100900.69
2023-06-14T18:24:38.903Z,100910.19
2023-06-14T18:27:12.264Z,100911.63
2023-06-14T18:29:42.027Z,100909.50
2023-06-14T18:32:12.509Z,100915.59
2023-06-14T18:34:44.904Z,100921.22
2023-06-14T18:37:14.917Z,100912.91
2023-06-14T18:39:44.907Z,100917.28
2023-06-14T18:42:14.744Z,100919.69
2023-06-14T18:44:44.492Z,100923.06
2023-06-14T18:47:14.895Z,100929.69
2023-06-14T18:49:47.278Z,100922.19
2023-06-14T18:52:17.288Z,100924.41
2023-06-14T18:54:47.269Z,100934.56
2023-06-14T18:57:17.065Z,100933.16
2023-06-14T18:59:46.745Z,100931.72
2023-06-14T19:02:16.552Z,100931.44
2023-06-14T19:04:48.993Z,100938.22
2023-06-14T19:07:18.909Z,100933.38
2023-06-14T19:09:48.616Z,100931.97
2023-06-14T19:12:18.422Z,100933.34
2023-06-14T19:14:48.191Z,100938.53
2023-06-14T19:17:17.965Z,100937.22
2023-06-14T19:19:50.454Z,100936.06
2023-06-14T19:22:20.228Z,100944.97
2023-06-14T19:24:49.963Z,100944.22
2023-06-14T19:27:19.746Z,100949.59
2023-06-14T19:29:49.397Z,100942.03
2023-06-14T19:32:19.207Z,100937.16
2023-06-14T19:34:52.091Z,100935.03
2023-06-14T19:37:21.851Z,100938.38
2023-06-14T19:39:51.773Z,100940.72
2023-06-14T19:42:21.569Z,100932.63
2023-06-14T19:44:51.424Z,100940.34
2023-06-14T19:47:21.321Z,100933.91
2023-06-14T19:49:53.787Z,100937.25
2023-06-14T19:52:24.776Z,100940.44
2023-06-14T19:54:54.566Z,100937.53
2023-06-14T19:59:53.786Z,100939.75
2023-06-14T20:02:23.567Z,100943.06
2023-06-14T20:04:56.052Z,100939.31
2023-06-14T20:07:26.670Z,100949.56
2023-06-14T20:09:56.449Z,100950.19
2023-06-14T20:12:26.198Z,100956.06
2023-06-14T20:14:55.893Z,100953.03
2023-06-14T20:17:25.608Z,100951.94
2023-06-14T20:19:57.921Z,100960.47
2023-06-14T20:22:27.682Z,100944.88
2023-06-14T20:24:57.402Z,100955.31
2023-06-14T20:27:27.193Z,100955.78
2023-06-14T20:29:56.884Z,100967.00
2023-06-14T20:32:27.542Z,100956.66
2023-06-14T20:35:00.127Z,100958.72
2023-06-14T20:37:30.140Z,100954.94
2023-06-14T20:40:03.675Z,100954.31
2023-06-14T20:42:34.082Z,100946.88
2023-06-14T20:45:04.009Z,100951.75
2023-06-14T20:47:33.899Z,100952.22
2023-06-14T20:50:06.490Z,100954.50
2023-06-14T20:52:36.293Z,100955.81
2023-06-14T20:55:06.154Z,100944.50
2023-06-14T20:57:36.279Z,100951.19
2023-06-14T21:00:11.871Z,100944.38
2023-06-14T21:02:42.166Z,100946.53
2023-06-14T21:05:14.907Z,100938.81
2023-06-14T21:07:44.642Z,100951.72
2023-06-14T21:10:14.592Z,100948.38
2023-06-14T21:12:44.434Z,100943.53
2023-06-14T21:15:14.743Z,100940.47
2023-06-14T21:17:44.563Z,100934.81
2023-06-14T21:20:17.165Z,100930.78
2023-06-14T21:22:47.665Z,100921.63
2023-06-14T21:25:17.554Z,100915.03
2023-06-14T21:27:47.252Z,100918.03
2023-06-14T21:30:19.249Z,100918.63
2023-06-14T21:32:49.308Z,100919.91
2023-06-14T21:35:21.728Z,100925.59
2023-06-14T21:37:51.446Z,100923.34
2023-06-14T21:40:21.211Z,100913.00
2023-06-14T21:42:51.038Z,100906.50
2023-06-14T21:45:20.856Z,100897.09
2023-06-14T21:47:51.679Z,100890.47
2023-06-14T21:50:25.311Z,100876.09
2023-06-14T21:52:55.113Z,100873.97
2023-06-14T21:55:26.634Z,100871.63
2023-06-14T21:57:56.424Z,100864.06
2023-06-14T22:00:26.631Z,100845.94
2023-06-14T22:02:56.498Z,100848.06
2023-06-14T22:05:28.838Z,100848.59
2023-06-14T22:07:59.235Z,100838.34
2023-06-14T22:10:30.890Z,100839.84
2023-06-14T22:13:01.858Z,100831.41
2023-06-14T22:15:31.594Z,100824.84
2023-06-14T22:18:01.703Z,100810.91
2023-06-14T22:20:34.280Z,100798.75
2023-06-14T22:23:04.136Z,100789.56
2023-06-14T22:25:34.391Z,100795.34
2023-06-14T22:28:06.020Z,100769.53
2023-06-14T22:30:37.504Z,100770.72
2023-06-14T22:33:07.479Z,100763.13
2023-06-14T22:35:40.160Z,100759.06
2023-06-14T22:38:10.674Z,100751.19
2023-06-14T22:40:41.176Z,100739.13
2023-06-14T22:43:11.011Z,100726.31
2023-06-14T22:45:41.416Z,100717.03
2023-06-14T22:48:11.163Z,100707.66
2023-06-14T22:50:43.470Z,100704.56
2023-06-14T22:53:13.259Z,100701.25
2023-06-14T22:55:43.002Z,100691.09
2023-06-14T22:58:16.349Z,100689.53
2023-06-14T23:00:47.649Z,100675.72
2023-06-14T23:03:17.561Z,100663.69
2023-06-14T23:05:49.839Z,100658.56
2023-06-14T23:08:19.605Z,100654.41
2023-06-14T23:10:49.272Z,100627.47
2023-06-14T23:13:19.167Z,100625.19
2023-06-14T23:15:48.865Z,100627.31
2023-06-14T23:18:18.580Z,100620.69
2023-06-14T23:20:50.936Z,100616.44
2023-06-14T23:23:21.459Z,100599.06
2023-06-14T23:25:55.422Z,100596.63
2023-06-14T23:28:25.172Z,100587.16
2023-06-14T23:30:55.206Z,100585.84
2023-06-14T23:33:26.261Z,100567.72
2023-06-14T23:36:03.625Z,100563.25
2023-06-14T23:38:33.747Z,100549.41
2023-06-14T23:41:06.613Z,100536.31
2023-06-14T23:43:38.655Z,100528.75
2023-06-14T23:46:08.534Z,100518.50
2023-06-14T23:48:38.988Z,100516.16
2023-06-14T23:51:11.818Z,100512.00
2023-06-14T23:53:41.921Z,100502.53
2023-06-14T23:56:12.090Z,100503.66
2023-06-14T23:58:41.830Z,100494.19
